createdAt,value
2018-12-21T00:01:11.189Z,95916.00
2018-12-21T00:03:41.593Z,95924.00
2018-12-21T00:06:11.903Z,95924.00
2018-12-21T00:08:42.257Z,95918.00
2018-12-21T00:11:12.582Z,95924.00
2018-12-21T00:13:43.000Z,95928.00
2018-12-21T00:16:13.316Z,95933.00
2018-12-21T00:18:43.584Z,95930.00
2018-12-21T00:21:21.629Z,95926.00
2018-12-21T00:23:46.262Z,95931.00
2018-12-21T00:26:16.560Z,95932.00
2018-12-21T00:28:46.916Z,95923.00
2018-12-21T00:31:22.429Z,95912.00
2018-12-21T00:33:57.819Z,95919.00
2018-12-21T00:36:33.179Z,95901.00
2018-12-21T00:39:08.801Z,95903.00
2018-12-21T00:41:38.308Z,95914.00
2018-12-21T00:44:15.127Z,95907.00
2018-12-21T00:46:49.808Z,95903.00
2018-12-21T00:49:21.140Z,95895.00
2018-12-21T00:51:51.409Z,95900.00
2018-12-21T00:54:22.947Z,95886.00
2018-12-21T00:56:53.239Z,95876.00
2018-12-21T00:59:23.559Z,95876.00
2018-12-21T01:01:53.826Z,95878.00
2018-12-21T01:04:24.187Z,95879.00
2018-12-21T01:06:54.466Z,95885.00
2018-12-21T01:09:24.785Z,95889.00
2018-12-21T01:11:55.299Z,95894.00
2018-12-21T01:14:25.580Z,95886.00
2018-12-21T01:16:55.917Z,95896.00
2018-12-21T01:19:26.194Z,95896.00
2018-12-21T01:21:56.528Z,95888.00
2018-12-21T01:24:26.808Z,95887.00
2018-12-21T01:26:57.116Z,95885.00
2018-12-21T01:29:27.395Z,95881.00
2018-12-21T01:31:57.707Z,95888.00
2018-12-21T01:34:28.011Z,95890.00
2018-12-21T01:36:58.308Z,95884.00
2018-12-21T01:39:28.634Z,95891.00
2018-12-21T01:41:58.963Z,95892.00
2018-12-21T01:44:29.264Z,95900.00
2018-12-21T01:46:59.631Z,95886.00
2018-12-21T01:49:29.916Z,95891.00
2018-12-21T01:52:00.332Z,95887.00
2018-12-21T01:54:30.605Z,95886.00
2018-12-21T01:57:00.912Z,95886.00
2018-12-21T01:59:31.225Z,95888.00
2018-12-21T02:02:01.636Z,95881.00
2018-12-21T02:04:31.992Z,95878.00
2018-12-21T02:07:02.280Z,95888.00
2018-12-21T02:09:33.967Z,95885.00
2018-12-21T02:12:04.272Z,95875.00
2018-12-21T02:14:34.584Z,95878.00
2018-12-21T02:17:04.861Z,95873.00
2018-12-21T02:19:35.180Z,95874.00
2018-12-21T02:22:05.443Z,95870.00
2018-12-21T02:24:35.763Z,95860.00
2018-12-21T02:27:06.191Z,95846.00
2018-12-21T02:29:36.501Z,95840.00
2018-12-21T02:32:06.782Z,95837.00
2018-12-21T02:34:37.267Z,95838.00
2018-12-21T02:37:07.556Z,95827.00
2018-12-21T02:39:37.853Z,95837.00
2018-12-21T02:42:08.120Z,95837.00
2018-12-21T02:44:38.517Z,95823.00
2018-12-21T02:47:08.875Z,95824.00
2018-12-21T02:49:39.296Z,95836.00
2018-12-21T02:52:09.591Z,95817.00
2018-12-21T02:54:39.864Z,95809.00
2018-12-21T02:57:10.164Z,95811.00
2018-12-21T02:59:40.447Z,95795.00
2018-12-21T03:02:10.761Z,95808.00
2018-12-21T03:04:41.040Z,95796.00
2018-12-21T03:07:11.336Z,95797.00
2018-12-21T03:09:41.603Z,95788.00
2018-12-21T03:12:11.923Z,95791.00
2018-12-21T03:14:42.212Z,95794.00
2018-12-21T03:17:12.514Z,95784.00
2018-12-21T03:19:42.825Z,95780.00
2018-12-21T03:22:15.165Z,95777.00
2018-12-21T03:24:45.419Z,95767.00
2018-12-21T03:27:15.760Z,95769.00
2018-12-21T03:29:46.055Z,95758.00
2018-12-21T03:32:16.452Z,95757.00
2018-12-21T03:34:46.862Z,95751.00
2018-12-21T03:37:17.118Z,95733.00
2018-12-21T03:39:47.576Z,95743.00
2018-12-21T03:42:17.869Z,95740.00
2018-12-21T03:44:48.192Z,95732.00
2018-12-21T03:47:18.456Z,95731.00
2018-12-21T03:49:48.762Z,95727.00
2018-12-21T03:52:24.229Z,95734.00
2018-12-21T03:54:51.429Z,95727.00
2018-12-21T03:57:21.688Z,95708.00
2018-12-21T03:59:52.001Z,95720.00
2018-12-21T04:02:22.379Z,95717.00
2018-12-21T04:04:52.678Z,95720.00
2018-12-21T04:07:23.289Z,95704.00
2018-12-21T04:09:53.956Z,95705.00
2018-12-21T04:12:24.229Z,95697.00
2018-12-21T04:14:54.560Z,95687.00
2018-12-21T04:17:24.842Z,95686.00
2018-12-21T04:19:55.155Z,95673.00
2018-12-21T04:22:33.751Z,95679.00
2018-12-21T04:24:57.746Z,95675.00
2018-12-21T04:27:28.084Z,95676.00
2018-12-21T04:29:58.375Z,95679.00
2018-12-21T04:32:28.664Z,95676.00
2018-12-21T04:34:58.971Z,95669.00
2018-12-21T04:37:29.274Z,95662.00
2018-12-21T04:39:59.576Z,95664.00
2018-12-21T04:42:29.900Z,95672.00
2018-12-21T04:45:00.171Z,95663.00
2018-12-21T04:47:30.494Z,95659.00
2018-12-21T04:50:00.761Z,95652.00
2018-12-21T04:52:31.183Z,95639.00
2018-12-21T04:55:02.004Z,95651.00
2018-12-21T04:57:32.268Z,95650.00
2018-12-21T05:00:04.261Z,95653.00
2018-12-21T05:02:34.529Z,95665.00
2018-12-21T05:05:05.254Z,95667.00
2018-12-21T05:07:35.519Z,95664.00
2018-12-21T05:10:06.365Z,95660.00
2018-12-21T05:12:37.220Z,95645.00
2018-12-21T05:15:07.681Z,95657.00
2018-12-21T05:17:37.961Z,95637.00
2018-12-21T05:20:08.688Z,95646.00
2018-12-21T05:22:38.948Z,95651.00
2018-12-21T05:25:09.260Z,95649.00
2018-12-21T05:27:39.536Z,95648.00
2018-12-21T05:30:10.689Z,95650.00
2018-12-21T05:32:40.981Z,95645.00
2018-12-21T05:35:11.546Z,95644.00
2018-12-21T05:37:41.813Z,95651.00
2018-12-21T05:40:12.140Z,95643.00
2018-12-21T05:42:42.420Z,95640.00
2018-12-21T05:45:12.745Z,95641.00
2018-12-21T05:47:43.039Z,95636.00
2018-12-21T05:50:13.352Z,95628.00
2018-12-21T05:52:43.648Z,95636.00
2018-12-21T05:55:14.035Z,95639.00
2018-12-21T05:57:44.337Z,95632.00
2018-12-21T06:00:14.632Z,95629.00
2018-12-21T06:02:45.025Z,95624.00
2018-12-21T06:05:15.348Z,95618.00
2018-12-21T06:07:45.649Z,95626.00
2018-12-21T06:10:16.165Z,95621.00
2018-12-21T06:12:46.477Z,95615.00
2018-12-21T06:15:16.855Z,95600.00
2018-12-21T06:17:47.177Z,95586.00
2018-12-21T06:20:17.492Z,95585.00
2018-12-21T06:22:47.837Z,95580.00
2018-12-21T06:25:18.394Z,95578.00
2018-12-21T06:27:48.732Z,95575.00
2018-12-21T06:30:19.083Z,95573.00
2018-12-21T06:32:49.372Z,95570.00
2018-12-21T06:35:19.794Z,95573.00
2018-12-21T06:37:50.078Z,95560.00
2018-12-21T06:40:20.440Z,95574.00
2018-12-21T06:42:50.906Z,95562.00
2018-12-21T06:45:21.302Z,95573.00
2018-12-21T06:47:51.576Z,95567.00
2018-12-21T06:50:22.188Z,95571.00
2018-12-21T06:52:52.547Z,95564.00
2018-12-21T06:55:22.843Z,95561.00
2018-12-21T06:57:53.253Z,95562.00
2018-12-21T07:00:23.557Z,95547.00
2018-12-21T07:02:54.216Z,95534.00
2018-12-21T07:05:24.509Z,95532.00
2018-12-21T07:07:54.910Z,95543.00
2018-12-21T07:10:25.248Z,95543.00
2018-12-21T07:12:55.552Z,95538.00
2018-12-21T07:15:26.080Z,95531.00
2018-12-21T07:17:56.360Z,95532.00
2018-12-21T07:20:26.672Z,95535.00
2018-12-21T07:22:57.066Z,95536.00
2018-12-21T07:25:27.405Z,95542.00
2018-12-21T07:27:57.747Z,95527.00
2018-12-21T07:30:28.060Z,95526.00
2018-12-21T07:32:58.366Z,95526.00
2018-12-21T07:35:28.676Z,95517.00
2018-12-21T07:37:59.004Z,95522.00
2018-12-21T07:40:29.321Z,95520.00
2018-12-21T07:42:59.608Z,95520.00
2018-12-21T07:45:29.921Z,95512.00
2018-12-21T07:48:00.257Z,95523.00
2018-12-21T07:50:30.573Z,95531.00
2018-12-21T07:53:00.844Z,95529.00
2018-12-21T07:55:31.775Z,95527.00
2018-12-21T07:58:02.048Z,95530.00
2018-12-21T08:00:32.344Z,95528.00
2018-12-21T08:03:03.012Z,95511.00
2018-12-21T08:05:33.425Z,95507.00
2018-12-21T08:08:03.712Z,95500.00
2018-12-21T08:10:34.025Z,95487.00
2018-12-21T08:13:04.507Z,95490.00
2018-12-21T08:15:34.821Z,95482.00
2018-12-21T08:18:05.096Z,95481.00
2018-12-21T08:20:35.628Z,95474.00
2018-12-21T08:23:05.908Z,95479.00
2018-12-21T08:25:36.222Z,95474.00
2018-12-21T08:28:06.535Z,95478.00
2018-12-21T08:30:36.841Z,95480.00
2018-12-21T08:33:07.204Z,95480.00
2018-12-21T08:35:37.527Z,95473.00
2018-12-21T08:38:08.080Z,95468.00
2018-12-21T08:40:38.401Z,95469.00
2018-12-21T08:43:08.659Z,95465.00
2018-12-21T08:45:39.838Z,95462.00
2018-12-21T08:48:10.236Z,95470.00
2018-12-21T08:50:40.544Z,95462.00
2018-12-21T08:53:10.816Z,95451.00
2018-12-21T08:55:41.454Z,95451.00
2018-12-21T08:58:11.736Z,95453.00
2018-12-21T09:00:42.392Z,95444.00
2018-12-21T09:03:12.678Z,95442.00
2018-12-21T09:05:43.119Z,95438.00
2018-12-21T09:08:13.530Z,95428.00
2018-12-21T09:10:43.808Z,95428.00
2018-12-21T09:13:14.442Z,95426.00
2018-12-21T09:15:44.707Z,95422.00
2018-12-21T09:18:15.035Z,95421.00
2018-12-21T09:20:45.346Z,95415.00
2018-12-21T09:23:15.752Z,95417.00
2018-12-21T09:25:46.043Z,95412.00
2018-12-21T09:28:16.355Z,95414.00
2018-12-21T09:30:46.629Z,95413.00
2018-12-21T09:33:16.940Z,95406.00
2018-12-21T09:35:47.211Z,95397.00
2018-12-21T09:38:17.516Z,95391.00
2018-12-21T09:40:47.808Z,95402.00
2018-12-21T09:43:18.211Z,95400.00
2018-12-21T09:45:48.489Z,95391.00
2018-12-21T09:48:18.796Z,95384.00
2018-12-21T09:50:49.067Z,95403.00
2018-12-21T09:53:19.380Z,95388.00
2018-12-21T09:55:49.656Z,95379.00
2018-12-21T09:58:19.963Z,95373.00
2018-12-21T10:00:50.295Z,95365.00
2018-12-21T10:03:20.616Z,95365.00
2018-12-21T10:05:50.969Z,95356.00
2018-12-21T10:08:21.267Z,95368.00
2018-12-21T10:10:51.535Z,95362.00
2018-12-21T10:13:21.841Z,95359.00
2018-12-21T10:15:52.245Z,95341.00
2018-12-21T10:18:22.573Z,95335.00
2018-12-21T10:20:52.876Z,95323.00
2018-12-21T10:23:23.154Z,95323.00
2018-12-21T10:25:53.448Z,95316.00
2018-12-21T10:28:23.796Z,95307.00
2018-12-21T10:30:54.080Z,95308.00
2018-12-21T10:33:24.472Z,95284.00
2018-12-21T10:35:54.802Z,95266.00
2018-12-21T10:38:25.159Z,95271.00
2018-12-21T10:40:55.474Z,95269.00
2018-12-21T10:43:25.784Z,95266.00
2018-12-21T10:45:56.040Z,95261.00
2018-12-21T10:48:26.353Z,95237.00
2018-12-21T10:50:56.656Z,95237.00
2018-12-21T10:53:26.987Z,95224.00
2018-12-21T10:55:57.361Z,95219.00
2018-12-21T10:58:27.688Z,95202.00
2018-12-21T11:00:58.049Z,95206.00
2018-12-21T11:03:28.361Z,95201.00
2018-12-21T11:05:58.723Z,95176.00
2018-12-21T11:08:29.108Z,95159.00
2018-12-21T11:10:59.493Z,95156.00
2018-12-21T11:13:29.867Z,95143.00
2018-12-21T11:16:00.716Z,95167.00
2018-12-21T11:18:31.368Z,95131.00
2018-12-21T11:21:01.637Z,95116.00
2018-12-21T11:23:31.941Z,95118.00
2018-12-21T11:26:04.424Z,95121.00
2018-12-21T11:28:34.727Z,95117.00
2018-12-21T11:31:05.297Z,95103.00
2018-12-21T11:33:35.648Z,95103.00
2018-12-21T11:36:05.939Z,95098.00
2018-12-21T11:38:36.270Z,95081.00
2018-12-21T11:41:06.560Z,95096.00
2018-12-21T11:43:36.890Z,95102.00
2018-12-21T11:46:07.174Z,95086.00
2018-12-21T11:48:37.472Z,95072.00
2018-12-21T11:51:07.752Z,95074.00
2018-12-21T11:53:38.045Z,95070.00
2018-12-21T11:56:08.460Z,95072.00
2018-12-21T11:58:38.805Z,95064.00
2018-12-21T12:01:09.144Z,95053.00
2018-12-21T12:03:39.554Z,95065.00
2018-12-21T12:06:09.892Z,95051.00
2018-12-21T12:08:40.337Z,95036.00
2018-12-21T12:11:10.729Z,95066.00
2018-12-21T12:13:41.025Z,95063.00
2018-12-21T12:16:11.693Z,95056.00
2018-12-21T12:18:42.021Z,95052.00
2018-12-21T12:21:12.307Z,95040.00
2018-12-21T12:23:42.601Z,95046.00
2018-12-21T12:26:13.112Z,95033.00
2018-12-21T12:28:43.416Z,95034.00
2018-12-21T12:31:13.752Z,95019.00
2018-12-21T12:33:44.117Z,95027.00
2018-12-21T12:36:14.359Z,95024.00
2018-12-21T12:38:44.731Z,95030.00
2018-12-21T12:41:14.967Z,95026.00
2018-12-21T12:43:45.261Z,95026.00
2018-12-21T12:46:15.537Z,95025.00
2018-12-21T12:48:45.821Z,95021.00
2018-12-21T12:51:16.415Z,95019.00
2018-12-21T12:53:46.652Z,95013.00
2018-12-21T12:56:16.910Z,95015.00
2018-12-21T12:58:47.195Z,95021.00
2018-12-21T13:01:17.469Z,95008.00
2018-12-21T13:03:47.823Z,95017.00
2018-12-21T13:06:18.356Z,95015.00
2018-12-21T13:08:48.614Z,95020.00
2018-12-21T13:11:18.980Z,95016.00
2018-12-21T13:13:49.265Z,95015.00
2018-12-21T13:16:19.648Z,95014.00
2018-12-21T13:18:50.018Z,95010.00
2018-12-21T13:21:20.504Z,94992.00
2018-12-21T13:23:50.812Z,95016.00
2018-12-21T13:26:21.656Z,95010.00
2018-12-21T13:28:52.029Z,95008.00
2018-12-21T13:31:22.388Z,95008.00
2018-12-21T13:33:52.697Z,95020.00
2018-12-21T13:36:23.159Z,95016.00
2018-12-21T13:38:53.451Z,95022.00
2018-12-21T13:41:23.887Z,95028.00
2018-12-21T13:43:54.200Z,95021.00
2018-12-21T13:46:25.221Z,95032.00
2018-12-21T13:48:57.338Z,95028.00
2018-12-21T13:51:27.860Z,95015.00
2018-12-21T13:53:58.097Z,95042.00
2018-12-21T13:56:28.472Z,95028.00
2018-12-21T13:58:58.822Z,95019.00
2018-12-21T14:01:30.186Z,95021.00
2018-12-21T14:04:00.425Z,95036.00
2018-12-21T14:06:30.688Z,95036.00
2018-12-21T14:09:00.927Z,95040.00
2018-12-21T14:11:31.209Z,95037.00
2018-12-21T14:14:01.514Z,95049.00
2018-12-21T14:16:32.978Z,95049.00
2018-12-21T14:19:03.681Z,95044.00
2018-12-21T14:21:34.566Z,95049.00
2018-12-21T14:24:05.990Z,95048.00
2018-12-21T14:26:37.104Z,95058.00
2018-12-21T14:29:07.903Z,95063.00
2018-12-21T14:31:38.518Z,95055.00
2018-12-21T14:34:09.748Z,95050.00
2018-12-21T14:36:41.439Z,95064.00
2018-12-21T14:39:12.650Z,95063.00
2018-12-21T14:41:43.785Z,95056.00
2018-12-21T14:44:15.141Z,95049.00
2018-12-21T14:46:46.320Z,95062.00
2018-12-21T14:49:17.624Z,95059.00
2018-12-21T14:51:48.272Z,95063.00
2018-12-21T14:54:19.554Z,95059.00
2018-12-21T14:56:51.776Z,95056.00
2018-12-21T14:59:23.073Z,95061.00
2018-12-21T15:01:53.931Z,95065.00
2018-12-21T15:04:25.337Z,95066.00
2018-12-21T15:06:56.440Z,95077.00
2018-12-21T15:09:27.652Z,95076.00
2018-12-21T15:11:58.940Z,95079.00
2018-12-21T15:14:30.445Z,95079.00
2018-12-21T15:17:02.285Z,95088.00
2018-12-21T15:19:33.925Z,95069.00
2018-12-21T15:22:04.650Z,95079.00
2018-12-21T15:24:35.679Z,95091.00
2018-12-21T15:27:08.991Z,95099.00
2018-12-21T15:29:41.757Z,95099.00
2018-12-21T15:32:13.080Z,95089.00
2018-12-21T15:34:43.471Z,95109.00
2018-12-21T15:37:13.945Z,95104.00
2018-12-21T15:39:44.504Z,95101.00
2018-12-21T15:42:14.817Z,95091.00
2018-12-21T15:44:45.738Z,95108.00
2018-12-21T15:47:16.060Z,95102.00
2018-12-21T15:49:46.307Z,95126.00
2018-12-21T15:52:16.671Z,95112.00
2018-12-21T15:54:46.936Z,95129.00
2018-12-21T15:57:17.896Z,95124.00
2018-12-21T15:59:48.296Z,95113.00
2018-12-21T16:02:18.905Z,95118.00
2018-12-21T16:04:49.423Z,95117.00
2018-12-21T16:07:22.046Z,95129.00
2018-12-21T16:09:53.751Z,95130.00
2018-12-21T16:12:24.584Z,95134.00
2018-12-21T16:14:56.268Z,95125.00
2018-12-21T16:17:26.862Z,95126.00
2018-12-21T16:19:57.515Z,95130.00
2018-12-21T16:22:27.872Z,95134.00
2018-12-21T16:24:58.651Z,95131.00
2018-12-21T16:27:29.469Z,95127.00
2018-12-21T16:29:59.705Z,95142.00
2018-12-21T16:32:30.014Z,95131.00
2018-12-21T16:35:00.484Z,95133.00
2018-12-21T16:37:30.899Z,95126.00
2018-12-21T16:40:01.288Z,95138.00
2018-12-21T16:42:31.647Z,95131.00
2018-12-21T16:45:02.052Z,95139.00
2018-12-21T16:47:32.457Z,95140.00
2018-12-21T16:50:04.820Z,95137.00
2018-12-21T16:52:35.298Z,95146.00
2018-12-21T16:55:05.876Z,95141.00
2018-12-21T16:57:36.232Z,95131.00
2018-12-21T17:00:13.826Z,95131.00
2018-12-21T17:02:44.223Z,95136.00
2018-12-21T17:05:15.111Z,95139.00
2018-12-21T17:07:45.620Z,95131.00
2018-12-21T17:10:20.103Z,95122.00
2018-12-21T17:12:50.520Z,95127.00
2018-12-21T17:15:21.088Z,95134.00
2018-12-21T17:17:53.496Z,95124.00
2018-12-21T17:20:25.896Z,95147.00
2018-12-21T17:22:56.448Z,95148.00
2018-12-21T17:25:28.390Z,95145.00
2018-12-21T17:27:59.721Z,95149.00
2018-12-21T17:30:31.125Z,95149.00
2018-12-21T17:33:01.767Z,95142.00
2018-12-21T17:35:32.065Z,95143.00
2018-12-21T17:38:02.395Z,95146.00
2018-12-21T17:40:32.673Z,95156.00
2018-12-21T17:43:03.044Z,95165.00
2018-12-21T17:45:33.324Z,95156.00
2018-12-21T17:48:03.583Z,95159.00
2018-12-21T17:50:33.867Z,95164.00
2018-12-21T17:53:04.132Z,95180.00
2018-12-21T17:55:34.410Z,95167.00
2018-12-21T17:58:06.679Z,95173.00
2018-12-21T18:00:38.269Z,95177.00
2018-12-21T18:03:15.621Z,95197.00
2018-12-21T18:05:45.976Z,95188.00
2018-12-21T18:08:16.312Z,95207.00
2018-12-21T18:10:46.579Z,95196.00
2018-12-21T18:13:16.824Z,95210.00
2018-12-21T18:15:47.095Z,95194.00
2018-12-21T18:18:25.031Z,95206.00
2018-12-21T18:20:50.197Z,95193.00
2018-12-21T18:23:20.853Z,95211.00
2018-12-21T18:25:51.613Z,95204.00
2018-12-21T18:28:27.452Z,95203.00
2018-12-21T18:31:12.759Z,95222.00
2018-12-21T18:33:44.464Z,95210.00
2018-12-21T18:36:14.744Z,95216.00
2018-12-21T18:38:45.664Z,95223.00
2018-12-21T18:41:16.040Z,95219.00
2018-12-21T18:43:46.316Z,95226.00
2018-12-21T18:46:16.611Z,95224.00
2018-12-21T18:48:46.877Z,95218.00
2018-12-21T18:51:17.304Z,95224.00
2018-12-21T18:53:47.575Z,95224.00
2018-12-21T18:56:23.456Z,95225.00
2018-12-21T18:58:53.758Z,95230.00
2018-12-21T19:01:24.044Z,95228.00
2018-12-21T19:03:54.293Z,95233.00
2018-12-21T19:06:24.865Z,95227.00
2018-12-21T19:08:55.112Z,95230.00
2018-12-21T19:11:25.401Z,95215.00
2018-12-21T19:13:55.871Z,95218.00
2018-12-21T19:16:26.171Z,95215.00
2018-12-21T19:18:56.454Z,95211.00
2018-12-21T19:21:26.872Z,95210.00
2018-12-21T19:23:57.401Z,95196.00
2018-12-21T19:26:27.898Z,95187.00
2018-12-21T19:28:58.423Z,95196.00
2018-12-21T19:31:29.066Z,95190.00
2018-12-21T19:33:59.668Z,95196.00
2018-12-21T19:36:30.468Z,95202.00
2018-12-21T19:39:00.975Z,95194.00
2018-12-21T19:41:31.456Z,95206.00
2018-12-21T19:44:01.835Z,95221.00
2018-12-21T19:46:32.552Z,95214.00
2018-12-21T19:49:02.788Z,95227.00
2018-12-21T19:51:33.095Z,95215.00
2018-12-21T19:54:03.340Z,95218.00
2018-12-21T19:56:47.230Z,95221.00
2018-12-21T19:59:17.738Z,95207.00
2018-12-21T20:01:48.483Z,95225.00
2018-12-21T20:04:19.222Z,95220.00
2018-12-21T20:06:50.141Z,95222.00
2018-12-21T20:09:20.608Z,95219.00
2018-12-21T20:11:51.027Z,95228.00
2018-12-21T20:14:21.506Z,95217.00
2018-12-21T20:16:51.825Z,95209.00
2018-12-21T20:19:22.382Z,95210.00
2018-12-21T20:21:52.939Z,95221.00
2018-12-21T20:24:28.448Z,95222.00
2018-12-21T20:27:13.368Z,95226.00
2018-12-21T20:29:40.617Z,95227.00
2018-12-21T20:32:11.210Z,95217.00
2018-12-21T20:34:42.796Z,95214.00
2018-12-21T20:37:15.089Z,95218.00
2018-12-21T20:39:48.008Z,95222.00
2018-12-21T20:42:19.050Z,95227.00
2018-12-21T20:44:50.667Z,95221.00
2018-12-21T20:47:21.946Z,95236.00
2018-12-21T20:49:52.542Z,95222.00
2018-12-21T20:52:22.895Z,95217.00
2018-12-21T20:54:54.360Z,95232.00
2018-12-21T20:57:29.073Z,95225.00
2018-12-21T21:00:00.587Z,95233.00
2018-12-21T21:02:31.833Z,95231.00
2018-12-21T21:05:02.535Z,95229.00
2018-12-21T21:07:35.388Z,95233.00
2018-12-21T21:10:11.239Z,95226.00
2018-12-21T21:12:43.032Z,95235.00
2018-12-21T21:15:14.823Z,95224.00
2018-12-21T21:17:45.580Z,95234.00
2018-12-21T21:20:17.325Z,95235.00
2018-12-21T21:22:48.642Z,95237.00
2018-12-21T21:25:20.584Z,95245.00
2018-12-21T21:27:51.716Z,95245.00
2018-12-21T21:30:22.931Z,95250.00
2018-12-21T21:32:53.804Z,95252.00
2018-12-21T21:35:24.092Z,95255.00
2018-12-21T21:37:55.104Z,95262.00
2018-12-21T21:40:26.316Z,95259.00
2018-12-21T21:42:57.619Z,95260.00
2018-12-21T21:45:29.177Z,95253.00
2018-12-21T21:48:00.398Z,95257.00
2018-12-21T21:50:31.472Z,95254.00
2018-12-21T21:53:02.124Z,95248.00
2018-12-21T21:55:33.021Z,95254.00
2018-12-21T21:58:04.284Z,95247.00
2018-12-21T22:00:35.964Z,95249.00
2018-12-21T22:03:06.953Z,95257.00
2018-12-21T22:05:39.152Z,95250.00
2018-12-21T22:08:10.457Z,95241.00
2018-12-21T22:10:41.760Z,95252.00
2018-12-21T22:13:12.541Z,95255.00
2018-12-21T22:15:43.492Z,95253.00
2018-12-21T22:18:15.254Z,95247.00
2018-12-21T22:20:46.425Z,95261.00
2018-12-21T22:23:18.170Z,95258.00
2018-12-21T22:25:53.268Z,95250.00
2018-12-21T22:28:23.432Z,95260.00
2018-12-21T22:30:54.581Z,95259.00
2018-12-21T22:33:25.442Z,95254.00
2018-12-21T22:35:56.744Z,95248.00
2018-12-21T22:38:28.120Z,95256.00
2018-12-21T22:40:59.404Z,95242.00
2018-12-21T22:43:30.159Z,95256.00
2018-12-21T22:46:01.716Z,95239.00
2018-12-21T22:48:33.391Z,95242.00
2018-12-21T22:51:04.071Z,95254.00
2018-12-21T22:53:34.545Z,95262.00
2018-12-21T22:56:04.795Z,95256.00
2018-12-21T22:58:35.056Z,95259.00
2018-12-21T23:01:05.555Z,95260.00
2018-12-21T23:03:35.825Z,95283.00
2018-12-21T23:06:06.074Z,95275.00
2018-12-21T23:08:45.034Z,95285.00
2018-12-21T23:11:23.725Z,95283.00
2018-12-21T23:14:07.865Z,95273.00
2018-12-21T23:16:39.604Z,95269.00
2018-12-21T23:19:32.568Z,95297.00
2018-12-21T23:22:02.892Z,95287.00
2018-12-21T23:24:33.194Z,95284.00
2018-12-21T23:27:03.581Z,95268.00
2018-12-21T23:29:33.912Z,95285.00
2018-12-21T23:32:04.241Z,95284.00
2018-12-21T23:34:35.363Z,95279.00
2018-12-21T23:37:05.720Z,95262.00
2018-12-21T23:39:36.280Z,95273.00
2018-12-21T23:42:06.765Z,95273.00
2018-12-21T23:44:37.216Z,95264.00
2018-12-21T23:47:08.489Z,95262.00
2018-12-21T23:49:38.934Z,95260.00
2018-12-21T23:52:09.324Z,95272.00
2018-12-21T23:54:39.612Z,95276.00
2018-12-21T23:57:09.849Z,95277.00
2018-12-21T23:59:40.447Z,95278.00
